sensor_id;sensor_type;location;lat;lon;timestamp;pressure;altitude;pressure_sealevel;temperature;humidity
64336;BME280;50672;53.362;-6.240;2022-08-21T00:01:50;101378.78;;;14.96;62.97
64336;BME280;50672;53.362;-6.240;2022-08-21T00:04:17;101376.34;;;15.01;62.95
64336;BME280;50672;53.362;-6.240;2022-08-21T00:06:49;101373.47;;;15.10;63.01
64336;BME280;50672;53.362;-6.240;2022-08-21T00:09:15;101381.41;;;15.19;63.16
64336;BME280;50672;53.362;-6.240;2022-08-21T00:11:43;101378.34;;;15.29;63.00
64336;BME280;50672;53.362;-6.240;2022-08-21T00:14:10;101379.50;;;15.35;63.12
64336;BME280;50672;53.362;-6.240;2022-08-21T00:16:38;101370.41;;;15.34;62.81
64336;BME280;50672;53.362;-6.240;2022-08-21T00:19:06;101385.84;;;15.35;62.45
64336;BME280;50672;53.362;-6.240;2022-08-21T00:21:34;101384.81;;;15.36;62.47
64336;BME280;50672;53.362;-6.240;2022-08-21T00:24:01;101384.41;;;15.40;62.42
64336;BME280;50672;53.362;-6.240;2022-08-21T00:26:27;101381.47;;;15.41;62.35
64336;BME280;50672;53.362;-6.240;2022-08-21T00:28:54;101379.31;;;15.36;61.80
64336;BME280;50672;53.362;-6.240;2022-08-21T00:31:24;101376.28;;;15.31;61.85
64336;BME280;50672;53.362;-6.240;2022-08-21T00:33:51;101372.22;;;15.27;61.83
64336;BME280;50672;53.362;-6.240;2022-08-21T00:36:26;101382.66;;;15.17;61.38
64336;BME280;50672;53.362;-6.240;2022-08-21T00:38:52;101379.22;;;15.15;61.28
64336;BME280;50672;53.362;-6.240;2022-08-21T00:41:19;101385.75;;;15.14;61.62
64336;BME280;50672;53.362;-6.240;2022-08-21T00:44:08;101379.44;;;15.13;61.54
64336;BME280;50672;53.362;-6.240;2022-08-21T00:46:36;101380.66;;;15.11;61.37
64336;BME280;50672;53.362;-6.240;2022-08-21T00:49:06;101378.09;;;15.09;61.17
64336;BME280;50672;53.362;-6.240;2022-08-21T00:54:07;101369.59;;;15.04;61.29
64336;BME280;50672;53.362;-6.240;2022-08-21T00:56:45;101374.63;;;15.00;61.01
64336;BME280;50672;53.362;-6.240;2022-08-21T00:59:16;101381.13;;;14.99;61.09
64336;BME280;50672;53.362;-6.240;2022-08-21T01:01:44;101378.38;;;14.99;60.86
64336;BME280;50672;53.362;-6.240;2022-08-21T01:04:11;101383.50;;;15.02;60.95
64336;BME280;50672;53.362;-6.240;2022-08-21T01:06:38;101371.00;;;15.00;61.13
64336;BME280;50672;53.362;-6.240;2022-08-21T01:09:06;101383.50;;;15.02;61.24
64336;BME280;50672;53.362;-6.240;2022-08-21T01:11:32;101384.56;;;15.01;60.72
64336;BME280;50672;53.362;-6.240;2022-08-21T01:14:00;101381.53;;;14.96;60.72
64336;BME280;50672;53.362;-6.240;2022-08-21T01:16:28;101386.25;;;14.88;61.22
64336;BME280;50672;53.362;-6.240;2022-08-21T01:18:55;101376.41;;;14.78;60.77
64336;BME280;50672;53.362;-6.240;2022-08-21T01:21:25;101378.41;;;14.69;61.08
64336;BME280;50672;53.362;-6.240;2022-08-21T01:23:56;101380.00;;;14.64;61.11
64336;BME280;50672;53.362;-6.240;2022-08-21T01:26:29;101384.13;;;14.60;61.24
64336;BME280;50672;53.362;-6.240;2022-08-21T01:31:59;101385.09;;;14.44;61.26
64336;BME280;50672;53.362;-6.240;2022-08-21T01:34:26;101381.03;;;14.40;61.64
64336;BME280;50672;53.362;-6.240;2022-08-21T01:36:53;101391.03;;;14.32;61.65
64336;BME280;50672;53.362;-6.240;2022-08-21T01:39:20;101392.44;;;14.28;61.55
64336;BME280;50672;53.362;-6.240;2022-08-21T01:41:47;101391.28;;;14.23;61.74
64336;BME280;50672;53.362;-6.240;2022-08-21T01:44:14;101397.50;;;14.16;61.91
64336;BME280;50672;53.362;-6.240;2022-08-21T01:46:41;101402.31;;;14.14;61.82
64336;BME280;50672;53.362;-6.240;2022-08-21T01:49:07;101399.94;;;14.11;62.08
64336;BME280;50672;53.362;-6.240;2022-08-21T01:51:35;101405.28;;;14.05;62.26
64336;BME280;50672;53.362;-6.240;2022-08-21T01:54:02;101400.84;;;14.04;62.52
64336;BME280;50672;53.362;-6.240;2022-08-21T01:56:36;101399.69;;;13.98;62.46
64336;BME280;50672;53.362;-6.240;2022-08-21T01:59:03;101394.75;;;13.93;62.72
64336;BME280;50672;53.362;-6.240;2022-08-21T02:01:30;101395.97;;;13.91;62.69
64336;BME280;50672;53.362;-6.240;2022-08-21T02:03:57;101397.38;;;13.87;62.74
64336;BME280;50672;53.362;-6.240;2022-08-21T02:06:26;101391.44;;;13.83;63.14
64336;BME280;50672;53.362;-6.240;2022-08-21T02:08:53;101391.63;;;13.81;63.35
64336;BME280;50672;53.362;-6.240;2022-08-21T02:11:20;101393.47;;;13.81;63.05
64336;BME280;50672;53.362;-6.240;2022-08-21T02:13:47;101398.28;;;13.79;63.30
64336;BME280;50672;53.362;-6.240;2022-08-21T02:16:15;101395.25;;;13.74;63.22
64336;BME280;50672;53.362;-6.240;2022-08-21T02:18:45;101398.53;;;13.69;63.17
64336;BME280;50672;53.362;-6.240;2022-08-21T02:21:12;101406.03;;;13.67;63.68
64336;BME280;50672;53.362;-6.240;2022-08-21T02:23:39;101402.16;;;13.61;63.45
64336;BME280;50672;53.362;-6.240;2022-08-21T02:26:07;101395.16;;;13.59;63.47
64336;BME280;50672;53.362;-6.240;2022-08-21T02:28:34;101399.09;;;13.56;63.45
64336;BME280;50672;53.362;-6.240;2022-08-21T02:31:02;101396.53;;;13.55;63.47
64336;BME280;50672;53.362;-6.240;2022-08-21T02:33:29;101404.09;;;13.53;63.62
64336;BME280;50672;53.362;-6.240;2022-08-21T02:35:56;101409.75;;;13.51;63.56
64336;BME280;50672;53.362;-6.240;2022-08-21T02:38:26;101394.72;;;13.47;63.98
64336;BME280;50672;53.362;-6.240;2022-08-21T02:40:54;101391.47;;;13.43;64.04
64336;BME280;50672;53.362;-6.240;2022-08-21T02:43:23;101400.69;;;13.42;64.03
64336;BME280;50672;53.362;-6.240;2022-08-21T02:45:51;101400.88;;;13.41;64.07
64336;BME280;50672;53.362;-6.240;2022-08-21T02:48:21;101385.00;;;13.36;63.96
64336;BME280;50672;53.362;-6.240;2022-08-21T02:50:55;101388.09;;;13.33;64.22
64336;BME280;50672;53.362;-6.240;2022-08-21T02:53:22;101386.56;;;13.30;64.26
64336;BME280;50672;53.362;-6.240;2022-08-21T02:55:50;101385.72;;;13.30;64.23
64336;BME280;50672;53.362;-6.240;2022-08-21T02:58:23;101388.63;;;13.28;64.43
64336;BME280;50672;53.362;-6.240;2022-08-21T03:00:50;101387.94;;;13.26;64.54
64336;BME280;50672;53.362;-6.240;2022-08-21T03:03:18;101379.06;;;13.24;64.58
64336;BME280;50672;53.362;-6.240;2022-08-21T03:05:44;101378.38;;;13.22;64.74
64336;BME280;50672;53.362;-6.240;2022-08-21T03:08:13;101377.72;;;13.20;64.82
64336;BME280;50672;53.362;-6.240;2022-08-21T03:10:43;101381.66;;;13.18;64.80
64336;BME280;50672;53.362;-6.240;2022-08-21T03:13:10;101381.16;;;13.14;64.67
64336;BME280;50672;53.362;-6.240;2022-08-21T03:15:38;101373.13;;;13.12;64.65
64336;BME280;50672;53.362;-6.240;2022-08-21T03:18:08;101379.78;;;13.10;65.10
64336;BME280;50672;53.362;-6.240;2022-08-21T03:20:36;101377.59;;;13.05;65.01
64336;BME280;50672;53.362;-6.240;2022-08-21T03:23:04;101381.53;;;13.03;65.28
64336;BME280;50672;53.362;-6.240;2022-08-21T03:25:40;101376.44;;;12.99;65.31
64336;BME280;50672;53.362;-6.240;2022-08-21T03:28:11;101381.56;;;12.94;65.36
64336;BME280;50672;53.362;-6.240;2022-08-21T03:30:44;101383.97;;;12.89;65.56
64336;BME280;50672;53.362;-6.240;2022-08-21T03:33:12;101387.22;;;12.85;65.46
64336;BME280;50672;53.362;-6.240;2022-08-21T03:35:46;101382.97;;;12.82;65.95
64336;BME280;50672;53.362;-6.240;2022-08-21T03:38:13;101390.50;;;12.80;65.80
64336;BME280;50672;53.362;-6.240;2022-08-21T03:40:42;101386.22;;;12.77;65.82
64336;BME280;50672;53.362;-6.240;2022-08-21T03:43:09;101384.03;;;12.73;65.95
64336;BME280;50672;53.362;-6.240;2022-08-21T03:45:37;101378.88;;;12.70;66.29
64336;BME280;50672;53.362;-6.240;2022-08-21T03:48:04;101384.69;;;12.67;66.30
64336;BME280;50672;53.362;-6.240;2022-08-21T03:50:35;101379.59;;;12.63;66.21
64336;BME280;50672;53.362;-6.240;2022-08-21T03:53:11;101394.63;;;12.59;66.19
64336;BME280;50672;53.362;-6.240;2022-08-21T03:55:48;101392.25;;;12.56;66.43
64336;BME280;50672;53.362;-6.240;2022-08-21T03:58:17;101392.59;;;12.53;66.70
64336;BME280;50672;53.362;-6.240;2022-08-21T04:00:46;101390.19;;;12.50;66.57
64336;BME280;50672;53.362;-6.240;2022-08-21T04:03:13;101395.16;;;12.46;66.90
64336;BME280;50672;53.362;-6.240;2022-08-21T04:05:40;101392.78;;;12.43;66.83
64336;BME280;50672;53.362;-6.240;2022-08-21T04:08:08;101390.88;;;12.44;66.84
64336;BME280;50672;53.362;-6.240;2022-08-21T04:10:37;101387.47;;;12.42;66.90
64336;BME280;50672;53.362;-6.240;2022-08-21T04:13:05;101399.44;;;12.41;66.95
64336;BME280;50672;53.362;-6.240;2022-08-21T04:15:32;101397.88;;;12.38;67.22
64336;BME280;50672;53.362;-6.240;2022-08-21T04:17:59;101396.19;;;12.37;67.31
64336;BME280;50672;53.362;-6.240;2022-08-21T04:20:26;101403.53;;;12.37;67.23
64336;BME280;50672;53.362;-6.240;2022-08-21T04:22:53;101408.28;;;12.35;67.42
64336;BME280;50672;53.362;-6.240;2022-08-21T04:25:21;101405.72;;;12.33;67.38
64336;BME280;50672;53.362;-6.240;2022-08-21T04:27:49;101412.06;;;12.34;67.29
64336;BME280;50672;53.362;-6.240;2022-08-21T04:30:16;101413.25;;;12.31;67.48
64336;BME280;50672;53.362;-6.240;2022-08-21T04:32:45;101413.44;;;12.29;67.38
64336;BME280;50672;53.362;-6.240;2022-08-21T04:35:17;101418.03;;;12.29;67.20
64336;BME280;50672;53.362;-6.240;2022-08-21T04:37:44;101423.66;;;12.27;67.55
64336;BME280;50672;53.362;-6.240;2022-08-21T04:40:13;101426.72;;;12.24;67.36
64336;BME280;50672;53.362;-6.240;2022-08-21T04:43:03;101426.72;;;12.24;67.43
64336;BME280;50672;53.362;-6.240;2022-08-21T04:45:36;101437.66;;;12.24;67.55
64336;BME280;50672;53.362;-6.240;2022-08-21T04:48:06;101451.47;;;12.23;67.65
64336;BME280;50672;53.362;-6.240;2022-08-21T04:53:32;101442.09;;;12.25;67.74
64336;BME280;50672;53.362;-6.240;2022-08-21T04:56:22;101439.34;;;12.25;67.91
64336;BME280;50672;53.362;-6.240;2022-08-21T04:58:50;101444.66;;;12.27;67.94
64336;BME280;50672;53.362;-6.240;2022-08-21T05:01:21;101437.47;;;12.26;67.68
64336;BME280;50672;53.362;-6.240;2022-08-21T05:03:51;101443.09;;;12.24;67.74
64336;BME280;50672;53.362;-6.240;2022-08-21T05:06:20;101449.56;;;12.23;67.91
64336;BME280;50672;53.362;-6.240;2022-08-21T05:08:49;101455.03;;;12.23;67.79
64336;BME280;50672;53.362;-6.240;2022-08-21T05:11:29;101456.75;;;12.24;68.06
64336;BME280;50672;53.362;-6.240;2022-08-21T05:13:57;101454.88;;;12.25;67.93
64336;BME280;50672;53.362;-6.240;2022-08-21T05:16:24;101457.59;;;12.25;67.83
64336;BME280;50672;53.362;-6.240;2022-08-21T05:19:04;101464.94;;;12.24;67.97
64336;BME280;50672;53.362;-6.240;2022-08-21T05:21:33;101465.13;;;12.23;68.11
64336;BME280;50672;53.362;-6.240;2022-08-21T05:24:00;101461.50;;;12.22;67.93
64336;BME280;50672;53.362;-6.240;2022-08-21T05:26:26;101456.22;;;12.21;67.88
64336;BME280;50672;53.362;-6.240;2022-08-21T05:28:53;101453.50;;;12.21;68.02
64336;BME280;50672;53.362;-6.240;2022-08-21T05:31:22;101460.50;;;12.23;68.01
64336;BME280;50672;53.362;-6.240;2022-08-21T05:33:49;101466.66;;;12.25;68.29
64336;BME280;50672;53.362;-6.240;2022-08-21T05:36:18;101471.06;;;12.26;67.98
64336;BME280;50672;53.362;-6.240;2022-08-21T05:38:45;101460.69;;;12.30;68.33
64336;BME280;50672;53.362;-6.240;2022-08-21T05:41:12;101475.00;;;12.32;68.36
64336;BME280;50672;53.362;-6.240;2022-08-21T05:43:39;101466.50;;;12.35;68.21
64336;BME280;50672;53.362;-6.240;2022-08-21T05:46:07;101470.06;;;12.36;68.28
64336;BME280;50672;53.362;-6.240;2022-08-21T05:48:35;101464.59;;;12.36;67.90
64336;BME280;50672;53.362;-6.240;2022-08-21T05:51:10;101455.41;;;12.37;68.01
64336;BME280;50672;53.362;-6.240;2022-08-21T05:53:38;101457.78;;;12.40;68.30
64336;BME280;50672;53.362;-6.240;2022-08-21T05:56:05;101457.59;;;12.41;67.98
64336;BME280;50672;53.362;-6.240;2022-08-21T05:58:33;101462.53;;;12.46;67.98
64336;BME280;50672;53.362;-6.240;2022-08-21T06:01:01;101463.06;;;12.50;68.26
64336;BME280;50672;53.362;-6.240;2022-08-21T06:03:32;101467.34;;;12.52;67.99
64336;BME280;50672;53.362;-6.240;2022-08-21T06:05:59;101467.16;;;12.54;68.03
64336;BME280;50672;53.362;-6.240;2022-08-21T06:08:27;101476.03;;;12.56;68.14
64336;BME280;50672;53.362;-6.240;2022-08-21T06:10:56;101469.72;;;12.55;67.85
64336;BME280;50672;53.362;-6.240;2022-08-21T06:13:25;101473.16;;;12.57;67.83
64336;BME280;50672;53.362;-6.240;2022-08-21T06:16:25;101474.53;;;12.61;68.00
64336;BME280;50672;53.362;-6.240;2022-08-21T06:18:52;101468.00;;;12.62;67.99
64336;BME280;50672;53.362;-6.240;2022-08-21T06:21:19;101467.84;;;12.64;67.72
64336;BME280;50672;53.362;-6.240;2022-08-21T06:23:46;101474.16;;;12.64;67.71
64336;BME280;50672;53.362;-6.240;2022-08-21T06:26:14;101482.19;;;12.66;67.80
64336;BME280;50672;53.362;-6.240;2022-08-21T06:28:41;101482.19;;;12.66;67.82
64336;BME280;50672;53.362;-6.240;2022-08-21T06:31:17;101486.47;;;12.69;67.88
64336;BME280;50672;53.362;-6.240;2022-08-21T06:33:44;101492.78;;;12.69;67.83
64336;BME280;50672;53.362;-6.240;2022-08-21T06:36:11;101491.75;;;12.70;67.81
64336;BME280;50672;53.362;-6.240;2022-08-21T06:38:38;101491.94;;;12.69;67.72
64336;BME280;50672;53.362;-6.240;2022-08-21T06:41:06;101498.22;;;12.69;67.62
64336;BME280;50672;53.362;-6.240;2022-08-21T06:43:35;101504.53;;;12.70;67.60
64336;BME280;50672;53.362;-6.240;2022-08-21T06:46:06;101508.13;;;12.70;67.59
64336;BME280;50672;53.362;-6.240;2022-08-21T06:48:33;101511.88;;;12.69;67.71
64336;BME280;50672;53.362;-6.240;2022-08-21T06:51:00;101511.03;;;12.69;67.99
64336;BME280;50672;53.362;-6.240;2022-08-21T06:53:27;101523.84;;;12.68;67.88
64336;BME280;50672;53.362;-6.240;2022-08-21T06:55:54;101524.88;;;12.67;67.72
64336;BME280;50672;53.362;-6.240;2022-08-21T06:58:21;101520.25;;;12.68;67.61
64336;BME280;50672;53.362;-6.240;2022-08-21T07:00:49;101521.81;;;12.70;67.53
64336;BME280;50672;53.362;-6.240;2022-08-21T07:03:30;101513.44;;;12.72;67.64
64336;BME280;50672;53.362;-6.240;2022-08-21T07:05:57;101521.44;;;12.73;67.70
64336;BME280;50672;53.362;-6.240;2022-08-21T07:08:26;101523.00;;;12.76;67.96
64336;BME280;50672;53.362;-6.240;2022-08-21T07:11:00;101525.72;;;12.76;67.82
64336;BME280;50672;53.362;-6.240;2022-08-21T07:13:28;101527.09;;;12.80;67.82
64336;BME280;50672;53.362;-6.240;2022-08-21T07:15:56;101524.72;;;12.85;67.96
64336;BME280;50672;53.362;-6.240;2022-08-21T07:18:29;101526.22;;;12.88;67.77
64336;BME280;50672;53.362;-6.240;2022-08-21T07:20:55;101525.03;;;12.90;67.71
64336;BME280;50672;53.362;-6.240;2022-08-21T07:23:26;101521.94;;;12.93;67.69
64336;BME280;50672;53.362;-6.240;2022-08-21T07:25:54;101525.19;;;12.97;67.78
64336;BME280;50672;53.362;-6.240;2022-08-21T07:28:21;101528.28;;;13.02;67.98
64336;BME280;50672;53.362;-6.240;2022-08-21T07:30:53;101522.09;;;13.08;67.88
64336;BME280;50672;53.362;-6.240;2022-08-21T07:33:21;101526.03;;;13.14;67.53
64336;BME280;50672;53.362;-6.240;2022-08-21T07:35:48;101527.22;;;13.20;67.83
64336;BME280;50672;53.362;-6.240;2022-08-21T07:38:15;101539.16;;;13.27;67.62
64336;BME280;50672;53.362;-6.240;2022-08-21T07:40:42;101543.41;;;13.29;67.69
64336;BME280;50672;53.362;-6.240;2022-08-21T07:43:09;101545.78;;;13.32;67.49
64336;BME280;50672;53.362;-6.240;2022-08-21T07:45:36;101553.34;;;13.39;67.60
64336;BME280;50672;53.362;-6.240;2022-08-21T07:48:03;101555.72;;;13.42;67.31
64336;BME280;50672;53.362;-6.240;2022-08-21T07:50:30;101554.34;;;13.46;67.29
64336;BME280;50672;53.362;-6.240;2022-08-21T07:52:57;101562.91;;;13.51;67.05
64336;BME280;50672;53.362;-6.240;2022-08-21T07:55:24;101555.00;;;13.56;67.28
64336;BME280;50672;53.362;-6.240;2022-08-21T07:57:51;101558.06;;;13.61;67.13
64336;BME280;50672;53.362;-6.240;2022-08-21T08:00:21;101560.13;;;13.67;66.82
64336;BME280;50672;53.362;-6.240;2022-08-21T08:02:50;101554.44;;;13.77;67.20
64336;BME280;50672;53.362;-6.240;2022-08-21T08:05:20;101550.63;;;13.87;67.02
64336;BME280;50672;53.362;-6.240;2022-08-21T08:07:47;101550.41;;;13.96;66.88
64336;BME280;50672;53.362;-6.240;2022-08-21T08:10:15;101548.13;;;14.08;66.49
64336;BME280;50672;53.362;-6.240;2022-08-21T08:12:45;101551.31;;;14.20;66.15
64336;BME280;50672;53.362;-6.240;2022-08-21T08:15:17;101544.03;;;14.35;66.02
64336;BME280;50672;53.362;-6.240;2022-08-21T08:17:45;101553.16;;;14.51;65.86
64336;BME280;50672;53.362;-6.240;2022-08-21T08:20:13;101544.22;;;14.65;65.55
64336;BME280;50672;53.362;-6.240;2022-08-21T08:22:41;101552.97;;;14.84;65.18
64336;BME280;50672;53.362;-6.240;2022-08-21T08:25:16;101553.78;;;15.08;65.03
64336;BME280;50672;53.362;-6.240;2022-08-21T08:27:44;101555.63;;;15.30;64.37
64336;BME280;50672;53.362;-6.240;2022-08-21T08:30:12;101546.09;;;15.56;63.85
64336;BME280;50672;53.362;-6.240;2022-08-21T08:32:40;101554.91;;;15.81;63.62
64336;BME280;50672;53.362;-6.240;2022-08-21T08:35:08;101549.94;;;16.06;63.10
64336;BME280;50672;53.362;-6.240;2022-08-21T08:37:35;101545.81;;;16.32;62.42
64336;BME280;50672;53.362;-6.240;2022-08-21T08:40:13;101541.84;;;16.56;61.71
64336;BME280;50672;53.362;-6.240;2022-08-21T08:42:41;101543.34;;;16.81;61.15
64336;BME280;50672;53.362;-6.240;2022-08-21T08:45:15;101539.44;;;16.90;60.54
64336;BME280;50672;53.362;-6.240;2022-08-21T08:47:52;101532.72;;;16.99;59.49
64336;BME280;50672;53.362;-6.240;2022-08-21T08:50:43;101538.91;;;17.01;58.95
64336;BME280;50672;53.362;-6.240;2022-08-21T08:53:15;101538.69;;;17.03;58.60
64336;BME280;50672;53.362;-6.240;2022-08-21T08:55:45;101539.69;;;16.95;57.89
64336;BME280;50672;53.362;-6.240;2022-08-21T08:58:22;101540.56;;;16.96;57.75
64336;BME280;50672;53.362;-6.240;2022-08-21T09:00:52;101540.09;;;16.92;57.33
64336;BME280;50672;53.362;-6.240;2022-08-21T09:03:22;101539.25;;;16.91;57.10
64336;BME280;50672;53.362;-6.240;2022-08-21T09:06:26;101542.19;;;16.90;56.45
64336;BME280;50672;53.362;-6.240;2022-08-21T09:09:25;101541.84;;;17.00;55.99
64336;BME280;50672;53.362;-6.240;2022-08-21T09:12:06;101544.13;;;17.18;55.65
64336;BME280;50672;53.362;-6.240;2022-08-21T09:27:49;101547.97;;;17.93;53.16
64336;BME280;50672;53.362;-6.240;2022-08-21T09:30:19;101550.78;;;18.07;52.96
64336;BME280;50672;53.362;-6.240;2022-08-21T09:32:50;101542.59;;;18.27;52.26
64336;BME280;50672;53.362;-6.240;2022-08-21T09:35:21;101534.16;;;18.55;51.85
64336;BME280;50672;53.362;-6.240;2022-08-21T09:42:57;101529.13;;;19.12;50.25
64336;BME280;50672;53.362;-6.240;2022-08-21T09:45:25;101533.59;;;19.00;50.00
64336;BME280;50672;53.362;-6.240;2022-08-21T09:48:12;101535.50;;;18.93;49.75
64336;BME280;50672;53.362;-6.240;2022-08-21T09:50:40;101532.53;;;18.94;49.33
64336;BME280;50672;53.362;-6.240;2022-08-21T09:53:20;101528.72;;;19.02;49.06
64336;BME280;50672;53.362;-6.240;2022-08-21T09:55:52;101536.56;;;19.12;48.81
64336;BME280;50672;53.362;-6.240;2022-08-21T09:58:40;101535.94;;;19.23;48.24
64336;BME280;50672;53.362;-6.240;2022-08-21T10:01:17;101524.66;;;19.38;48.04
64336;BME280;50672;53.362;-6.240;2022-08-21T10:03:48;101534.22;;;19.36;47.91
64336;BME280;50672;53.362;-6.240;2022-08-21T10:06:25;101531.59;;;19.61;47.62
64336;BME280;50672;53.362;-6.240;2022-08-21T10:11:33;101536.19;;;19.94;46.80
64336;BME280;50672;53.362;-6.240;2022-08-21T10:14:27;101541.19;;;20.17;46.19
64336;BME280;50672;53.362;-6.240;2022-08-21T10:17:10;101536.09;;;20.21;46.04
64336;BME280;50672;53.362;-6.240;2022-08-21T10:20:03;101535.88;;;20.15;45.56
64336;BME280;50672;53.362;-6.240;2022-08-21T10:22:48;101536.34;;;20.06;45.36
64336;BME280;50672;53.362;-6.240;2022-08-21T10:25:40;101529.94;;;20.12;45.25
64336;BME280;50672;53.362;-6.240;2022-08-21T10:36:58;101519.63;;;20.64;44.07
64336;BME280;50672;53.362;-6.240;2022-08-21T10:42:29;101514.88;;;20.78;43.69
64336;BME280;50672;53.362;-6.240;2022-08-21T10:45:10;101513.91;;;20.91;43.16
64336;BME280;50672;53.362;-6.240;2022-08-21T10:47:48;101520.47;;;20.97;42.96
64336;BME280;50672;53.362;-6.240;2022-08-21T10:50:39;101519.84;;;20.95;42.72
64336;BME280;50672;53.362;-6.240;2022-08-21T11:01:42;101519.09;;;21.31;41.79
64336;BME280;50672;53.362;-6.240;2022-08-21T11:06:49;101516.38;;;21.68;41.47
64336;BME280;50672;53.362;-6.240;2022-08-21T11:09:22;101522.72;;;21.88;41.38
64336;BME280;50672;53.362;-6.240;2022-08-21T11:12:00;101515.25;;;22.07;41.03
64336;BME280;50672;53.362;-6.240;2022-08-21T11:17:19;101503.88;;;22.45;40.25
64336;BME280;50672;53.362;-6.240;2022-08-21T11:19:53;101507.63;;;22.63;40.35
64336;BME280;50672;53.362;-6.240;2022-08-21T11:22:28;101508.16;;;22.83;39.93
64336;BME280;50672;53.362;-6.240;2022-08-21T11:25:21;101507.72;;;23.34;39.65
64336;BME280;50672;53.362;-6.240;2022-08-21T11:27:58;101504.97;;;23.86;39.02
64336;BME280;50672;53.362;-6.240;2022-08-21T11:30:36;101501.09;;;24.28;38.44
64336;BME280;50672;53.362;-6.240;2022-08-21T11:33:22;101507.38;;;24.52;38.03
64336;BME280;50672;53.362;-6.240;2022-08-21T11:36:02;101502.53;;;24.94;37.43
64336;BME280;50672;53.362;-6.240;2022-08-21T11:38:40;101501.50;;;25.34;36.74
64336;BME280;50672;53.362;-6.240;2022-08-21T11:41:38;101501.25;;;25.57;36.20
64336;BME280;50672;53.362;-6.240;2022-08-21T11:49:36;101496.25;;;27.23;34.38
64336;BME280;50672;53.362;-6.240;2022-08-21T11:54:52;101484.75;;;28.67;33.09
64336;BME280;50672;53.362;-6.240;2022-08-21T11:57:24;101493.41;;;29.32;32.46
64336;BME280;50672;53.362;-6.240;2022-08-21T12:00:22;101493.75;;;29.96;31.65
64336;BME280;50672;53.362;-6.240;2022-08-21T12:02:54;101489.81;;;30.42;30.89
64336;BME280;50672;53.362;-6.240;2022-08-21T12:05:30;101494.47;;;30.62;30.11
64336;BME280;50672;53.362;-6.240;2022-08-21T12:10:40;101477.25;;;31.52;28.44
64336;BME280;50672;53.362;-6.240;2022-08-21T12:13:11;101465.38;;;32.23;28.00
64336;BME280;50672;53.362;-6.240;2022-08-21T12:16:13;101461.44;;;32.76;27.84
64336;BME280;50672;53.362;-6.240;2022-08-21T12:18:41;101470.47;;;32.40;26.96
64336;BME280;50672;53.362;-6.240;2022-08-21T12:21:27;101472.53;;;32.53;26.50
64336;BME280;50672;53.362;-6.240;2022-08-21T12:26:59;101479.41;;;32.80;25.39
64336;BME280;50672;53.362;-6.240;2022-08-21T12:29:36;101478.16;;;32.86;25.37
64336;BME280;50672;53.362;-6.240;2022-08-21T12:34:46;101470.84;;;33.46;24.38
64336;BME280;50672;53.362;-6.240;2022-08-21T12:39:58;101484.13;;;33.31;24.45
64336;BME280;50672;53.362;-6.240;2022-08-21T12:42:37;101496.81;;;32.49;24.55
64336;BME280;50672;53.362;-6.240;2022-08-21T12:48:12;101503.41;;;32.01;25.54
64336;BME280;50672;53.362;-6.240;2022-08-21T12:50:45;101489.97;;;32.17;25.44
64336;BME280;50672;53.362;-6.240;2022-08-21T12:55:47;101490.19;;;32.40;25.41
64336;BME280;50672;53.362;-6.240;2022-08-21T13:00:51;101490.19;;;32.01;25.67
64336;BME280;50672;53.362;-6.240;2022-08-21T13:03:19;101497.47;;;32.60;25.32
64336;BME280;50672;53.362;-6.240;2022-08-21T13:05:46;101500.69;;;33.05;24.90
64336;BME280;50672;53.362;-6.240;2022-08-21T13:08:13;101491.66;;;33.50;24.80
64336;BME280;50672;53.362;-6.240;2022-08-21T13:10:41;101487.47;;;33.33;24.75
64336;BME280;50672;53.362;-6.240;2022-08-21T13:13:14;101482.22;;;33.41;24.22
64336;BME280;50672;53.362;-6.240;2022-08-21T13:16:05;101486.75;;;33.09;24.30
64336;BME280;50672;53.362;-6.240;2022-08-21T13:18:56;101470.41;;;32.78;24.01
64336;BME280;50672;53.362;-6.240;2022-08-21T13:21:45;101467.19;;;33.31;23.78
64336;BME280;50672;53.362;-6.240;2022-08-21T13:24:25;101488.69;;;34.11;23.88
64336;BME280;50672;53.362;-6.240;2022-08-21T13:27:25;101472.53;;;34.48;23.67
64336;BME280;50672;53.362;-6.240;2022-08-21T13:30:12;101477.50;;;34.87;23.13
64336;BME280;50672;53.362;-6.240;2022-08-21T13:32:42;101469.97;;;35.05;23.17
64336;BME280;50672;53.362;-6.240;2022-08-21T13:35:31;101476.59;;;35.32;22.49
64336;BME280;50672;53.362;-6.240;2022-08-21T13:38:03;101477.03;;;35.74;21.82
64336;BME280;50672;53.362;-6.240;2022-08-21T13:40:46;101472.41;;;35.87;21.95
64336;BME280;50672;53.362;-6.240;2022-08-21T13:43:18;101452.44;;;36.19;21.36
64336;BME280;50672;53.362;-6.240;2022-08-21T13:45:50;101465.63;;;36.50;20.98
64336;BME280;50672;53.362;-6.240;2022-08-21T13:48:18;101465.47;;;36.46;20.80
64336;BME280;50672;53.362;-6.240;2022-08-21T13:50:46;101453.28;;;36.54;21.05
64336;BME280;50672;53.362;-6.240;2022-08-21T13:56:27;101456.41;;;35.74;20.64
64336;BME280;50672;53.362;-6.240;2022-08-21T13:58:55;101453.56;;;34.94;20.58
64336;BME280;50672;53.362;-6.240;2022-08-21T14:01:52;101461.66;;;33.26;21.19
64336;BME280;50672;53.362;-6.240;2022-08-21T14:04:23;101450.06;;;31.91;21.56
64336;BME280;50672;53.362;-6.240;2022-08-21T14:06:52;101463.13;;;30.45;22.44
64336;BME280;50672;53.362;-6.240;2022-08-21T14:09:40;101457.72;;;29.48;23.34
64336;BME280;50672;53.362;-6.240;2022-08-21T14:15:54;101461.00;;;30.95;24.05
64336;BME280;50672;53.362;-6.240;2022-08-21T14:25:42;101436.84;;;28.38;25.21
64336;BME280;50672;53.362;-6.240;2022-08-21T14:29:25;101454.19;;;27.45;26.02
64336;BME280;50672;53.362;-6.240;2022-08-21T14:32:30;101452.94;;;26.83;26.66
64336;BME280;50672;53.362;-6.240;2022-08-21T14:35:56;101450.22;;;26.29;27.13
64336;BME280;50672;53.362;-6.240;2022-08-21T14:39:50;101446.22;;;25.70;27.96
64336;BME280;50672;53.362;-6.240;2022-08-21T14:43:17;101442.00;;;25.45;28.42
64336;BME280;50672;53.362;-6.240;2022-08-21T14:46:53;101439.56;;;25.32;29.37